Terminal Aerodrome Forecast
Issued by NWS

Home | Current Version | Previous Version | Text Only | Print | Product List | Glossary On
Versions: 1 2 3 4 5 6 7 8 9 10 11 12 13 14 15 16 17 18
206
FTUS42 KFFC 220801 AAB
TAFFTY
TAF AMD
KFTY 220801Z 2208/2306 32003KT P6SM SCT025 SCT040
      TEMPO 2208/2210 BKN040
     FM221200 33003KT P6SM FEW025 SCT040
     FM221400 34009KT P6SM SCT250
     FM222200 34003KT P6SM SCT250=

USA.gov is the U.S. government's official web portal to all federal, state and local government web resources and services.